Latest Weather Observations for Kununurra Airport

IDW60801

Issued at 10:35 pm WST Thursday 30 October 2014 (issued every 30 minutes, with the page automatically refreshed every 10 minutes)

About weather observations | Map of weather stations | Latest weather observations for WA | Other Formats
Station Details ID: 002056 Name: KUNUNURRA AERO Lat: -15.78 Lon: 128.71 Height: 44.0 m
Data from the previous 72 hours. | See also: Recent months at Kununurra Airport
Date/Time
WST
Temp
°C
App
Temp
°C
Dew
Point
Rel
Hum
%
Delta-T
°C
Wind Press
QNH
hPa
Press
MSL
hPa
Rain
since 9 am
mm
Dir
 
Spd
km/h
Gust
km/h
Spd
kts
Gust
kts
30/10:30pm 28.1 30.4 22.8 73 3.6 N 15 17 8 9 1008.7 - 0.0
30/10:00pm 28.6 30.3 22.4 69 4.2 N 17 20 9 11 1008.7 - 0.0
30/09:30pm 29.2 30.6 21.8 64 5.0 N 17 20 9 11 1008.7 - 0.0
30/09:00pm 29.8 30.8 21.1 59 5.8 N 17 20 9 11 1008.6 1008.3 0.0
30/08:30pm 30.0 31.0 20.2 55 6.5 N 15 20 8 11 1008.3 - 0.0
30/08:00pm 30.3 30.7 18.9 50 7.4 N 15 19 8 10 1008.2 - 0.0
30/07:30pm 31.0 31.2 19.4 50 7.6 N 17 19 9 10 1007.8 - 0.0
30/07:00pm 31.5 32.0 18.4 45 8.5 N 13 17 7 9 1007.5 - 0.0
30/06:30pm 32.5 32.4 17.0 39 9.9 N 13 15 7 8 1007.3 - 0.0
30/06:00pm 33.7 33.3 16.1 34 11.1 N 13 17 7 9 1006.7 1006.4 0.0
30/05:30pm 34.8 33.4 15.6 31 12.1 N 17 22 9 12 1006.4 - 0.0
30/05:00pm 36.1 34.3 16.0 30 12.8 N 20 26 11 14 1006.0 - 0.0
30/04:30pm 37.2 34.7 16.1 28 13.5 NNW 24 32 13 17 1005.7 - 0.0
30/04:00pm 38.2 36.2 17.3 29 13.6 N 24 35 13 19 1005.7 - 0.0
30/03:30pm 40.0 37.3 16.6 25 15.2 N 26 39 14 21 1005.0 - 0.0
30/03:00pm 39.9 37.5 15.5 24 15.6 N 22 32 12 17 1004.7 1004.4 0.0
30/02:30pm 41.7 40.2 11.8 17 18.2 N 11 22 6 12 1004.9 - 0.0
30/02:00pm 42.3 38.9 11.2 16 18.9 NNW 20 26 11 14 1005.1 - 0.0
30/01:30pm 41.4 38.0 11.2 16 18.3 N 20 22 11 12 1005.7 - 0.0
30/01:00pm 40.4 39.2 13.9 21 16.6 ENE 13 24 7 13 1006.0 - 0.0
30/12:30pm 40.1 40.1 15.3 23 15.8 WNW 9 19 5 10 1006.5 - 0.0
30/12:00pm 39.6 39.3 15.5 24 15.4 WSW 11 17 6 9 1007.0 1006.7 0.0
30/11:30am 38.9 38.0 14.8 24 15.2 N 13 22 7 12 1007.8 - 0.0
30/11:00am 38.3 38.3 16.2 27 14.2 W 11 20 6 11 1008.3 - 0.0
30/10:30am 37.8 37.3 15.8 27 14.0 N 13 19 7 10 1008.9 - 0.0
30/10:00am 37.0 38.1 17.9 32 12.5 NNE 9 17 5 9 1009.4 - 0.0
30/09:30am 35.6 36.8 19.1 38 10.9 NNW 11 17 6 9 1010.1 - 0.0
30/09:00am 35.1 36.5 20.4 42 9.9 N 13 20 7 11 1010.6 1010.3 0.0
30/08:30am 33.5 36.0 21.7 50 8.0 N 11 17 6 9 1011.1 - 0.0
30/08:00am 32.6 33.8 21.5 52 7.5 N 17 22 9 12 1011.4 - 0.0
30/07:30am 31.4 34.4 23.3 62 5.6 NNE 13 17 7 9 1011.3 - 0.0
30/07:00am 29.8 32.5 22.8 66 4.8 NNE 13 17 7 9 1011.2 - 0.0
30/06:30am 28.9 32.8 22.6 69 4.3 NNW 6 15 3 8 1011.1 - 0.0
30/06:00am 26.6 28.8 20.5 69 4.0 SSW 9 11 5 6 1010.8 1010.5 0.0
30/05:30am 25.0 27.7 20.7 77 2.8 WSW 7 9 4 5 1010.3 - 0.0
30/05:00am 24.6 27.2 20.5 78 2.7 SSE 7 9 4 5 1009.8 - 0.0
30/04:30am 23.7 25.7 19.2 76 2.9 NW 7 9 4 5 1009.2 - 0.0
30/04:00am 24.7 26.4 19.4 72 3.4 N 9 13 5 7 1008.8 - 0.0
30/03:30am 24.1 25.9 18.8 72 3.4 N 7 9 4 5 1008.4 - 0.0
30/03:00am 24.5 27.9 19.4 73 3.3 CALM 0 4 0 2 1008.1 1007.8 0.0
30/02:30am 24.2 26.1 18.5 70 3.6 NW 6 7 3 4 1008.0 - 0.0
30/02:00am 25.0 26.9 18.6 67 4.1 N 6 11 3 6 1008.0 - 0.0
30/01:30am 25.7 27.0 17.6 61 5.1 NNE 7 9 4 5 1008.1 - 0.0
30/01:00am 25.1 28.0 18.1 65 4.4 CALM 0 0 0 0 1008.3 - 0.0
30/12:30am 25.5 28.4 18.1 63 4.7 CALM 0 0 0 0 1008.4 - 0.0
30/12:00am 26.5 29.4 18.2 60 5.3 NE 0 0 0 0 1008.7 1008.4 0.0
 
Date/Time
WST
Temp
°C
App
Temp
°C
Dew
Point
Rel
Hum
%
Delta-T
°C
Wind Press
QNH
hPa
Press
MSL
hPa
Rain
since 9 am
mm
Dir
 
Spd
km/h
Gust
km/h
Spd
kts
Gust
kts
29/11:30pm 26.9 27.7 18.1 58 5.6 NNE 11 13 6 7 1009.0 - 0.0
29/11:00pm 26.9 28.0 18.1 58 5.6 NNE 9 11 5 6 1009.3 - 0.0
29/10:30pm 27.4 27.5 17.4 54 6.3 N 13 15 7 8 1009.8 - 0.0
29/10:00pm 28.6 30.2 16.0 46 7.8 N 2 7 1 4 1009.8 - 0.0
29/09:30pm 28.6 31.1 17.2 50 7.2 CALM 0 0 0 0 1009.8 - 0.0
29/09:00pm 28.8 29.7 16.7 48 7.6 NNE 7 9 4 5 1010.0 1009.7 0.0
29/08:30pm 29.9 30.5 16.9 45 8.2 N 9 11 5 6 1010.0 - 0.0
29/08:00pm 30.0 30.8 17.4 46 8.0 N 9 11 5 6 1009.7 - 0.0
29/07:30pm 30.7 31.6 18.3 47 8.0 N 11 13 6 7 1009.5 - 0.0
29/07:00pm 31.8 32.7 18.4 45 8.7 N 11 13 6 7 1009.3 - 0.0
29/06:30pm 32.9 33.2 17.9 41 9.7 N 13 17 7 9 1009.0 - 0.0
29/06:00pm 34.2 33.5 17.4 36 10.8 N 17 22 9 12 1008.5 1008.2 0.0
29/05:30pm 35.1 33.5 16.4 32 11.9 N 20 30 11 16 1008.0 - 0.0
29/05:00pm 36.7 35.5 13.9 25 14.1 N 13 15 7 8 1007.6 - 0.0
29/04:30pm 37.2 35.8 13.3 24 14.7 N 13 17 7 9 1007.3 - 0.0
29/04:00pm 39.5 38.1 12.1 19 16.7 NNW 11 15 6 8 1007.2 - 0.0
29/03:30pm 39.3 38.5 13.0 21 16.2 NNW 9 17 5 9 1007.1 - 0.0
29/03:00pm 39.4 37.1 10.5 17 17.2 N 13 24 7 13 1007.1 1006.8 0.0
29/02:30pm 40.5 37.1 9.1 15 18.4 NE 17 22 9 12 1007.4 - 0.0
29/02:00pm 40.3 39.3 12.4 19 17.1 N 9 17 5 9 1007.7 - 0.0
29/01:30pm 40.3 38.1 10.8 17 17.7 NE 13 20 7 11 1008.1 - 0.0
29/01:00pm 40.2 36.5 10.3 16 17.8 E 20 30 11 16 1008.5 - 0.0
29/12:30pm 40.0 38.2 12.1 19 17.0 NE 13 24 7 13 1009.0 - 0.0
29/12:00pm 38.8 36.2 12.1 20 16.2 NNE 17 26 9 14 1009.7 1009.4 0.0
29/11:30am 38.8 38.3 13.9 22 15.5 N 9 17 5 9 1010.3 - 0.0
29/11:00am 38.6 37.6 14.5 24 15.1 NE 13 22 7 12 1010.9 - 0.0
29/10:30am 38.8 37.2 15.1 24 15.0 N 17 24 9 13 1011.3 - 0.0
29/10:00am 37.6 35.5 14.8 25 14.3 NNE 19 24 10 13 1011.7 - 0.0
29/09:30am 35.8 35.8 17.2 33 12.0 N 13 19 7 10 1012.0 - 0.0
29/09:00am 34.4 36.0 18.3 38 10.5 N 7 17 4 9 1012.2 1011.9 0.0
29/08:30am 33.2 34.6 18.6 42 9.5 N 9 15 5 8 1012.4 - 0.0
29/08:00am 32.8 34.8 20.0 47 8.5 NNE 9 15 5 8 1012.4 - 0.0
29/07:30am 30.9 33.2 20.7 54 6.8 NNE 9 13 5 7 1012.4 - 0.0
29/07:00am 29.8 32.8 21.3 60 5.7 N 7 13 4 7 1012.2 - 0.0
29/06:30am 28.2 31.7 21.8 68 4.3 S 6 7 3 4 1012.1 - 0.0
29/06:00am 26.4 29.7 21.4 74 3.3 SSW 6 7 3 4 1012.0 1011.7 0.0
29/05:30am 24.7 28.5 20.2 76 2.9 CALM 0 0 0 0 1011.7 - 0.0
29/05:00am 25.0 27.1 20.2 74 3.1 S 9 11 5 6 1011.5 - 0.0
29/04:30am 25.3 27.5 19.7 71 3.6 S 7 9 4 5 1011.1 - 0.0
29/04:00am 25.1 27.8 20.2 74 3.2 SSW 6 7 3 4 1010.7 - 0.0
29/03:30am 25.8 28.0 19.6 68 4.0 N 7 9 4 5 1010.3 - 0.0
29/03:00am 26.3 27.8 18.8 63 4.8 ENE 9 11 5 6 1010.1 1009.8 0.0
29/02:30am 27.0 29.1 18.2 58 5.6 NE 4 7 2 4 1009.8 - 0.0
29/02:00am 27.0 28.5 17.7 56 5.9 ENE 6 9 3 5 1009.6 - 0.0
29/01:30am 26.6 27.4 16.4 53 6.3 NE 7 9 4 5 1009.4 - 0.0
29/01:00am 26.7 29.1 16.9 55 6.1 CALM 0 0 0 0 1009.4 - 0.0
29/12:30am 26.9 28.9 16.0 51 6.7 CALM 0 0 0 0 1009.3 - 0.0
29/12:00am 28.1 26.7 14.5 43 8.2 N 15 17 8 9 1009.3 1009.0 0.0
 
Date/Time
WST
Temp
°C
App
Temp
°C
Dew
Point
Rel
Hum
%
Delta-T
°C
Wind Press
QNH
hPa
Press
MSL
hPa
Rain
since 9 am
mm
Dir
 
Spd
km/h
Gust
km/h
Spd
kts
Gust
kts
28/11:30pm 27.1 28.2 15.5 49 7.1 NNE 4 7 2 4 1009.3 - 0.0
28/11:00pm 27.7 26.9 15.0 45 7.7 N 13 15 7 8 1009.3 - 0.0
28/10:30pm 28.3 26.2 14.8 43 8.2 N 19 20 10 11 1009.4 - 0.0
28/10:00pm 28.1 29.6 14.7 44 8.1 CALM 0 0 0 0 1009.3 - 0.0
28/09:30pm 28.9 30.9 16.0 45 8.0 CALM 0 0 0 0 1009.4 - 0.0
28/09:00pm 29.0 31.2 16.5 46 7.8 CALM 0 9 0 5 1009.3 1009.0 0.0
28/08:30pm 31.2 32.7 14.7 36 10.1 CALM 0 4 0 2 1009.2 - 0.0
28/08:00pm 32.4 32.2 14.7 34 10.9 WNW 9 13 5 7 1009.2 - 0.0
28/07:30pm 33.0 31.6 14.5 32 11.4 WNW 15 17 8 9 1008.9 - 0.0
28/07:00pm 33.0 32.2 15.1 34 11.1 NW 13 19 7 10 1008.6 - 0.0
28/06:30pm 31.2 30.7 12.7 32 11.0 NNW 7 17 4 9 1008.3 - 0.0
28/06:00pm 35.2 34.7 12.2 25 13.8 E 6 7 3 4 1007.8 1007.5 0.0
28/05:30pm 36.6 33.7 9.8 19 15.6 E 15 20 8 11 1007.5 - 0.0
28/05:00pm 38.5 34.4 8.8 16 17.2 E 20 28 11 15 1007.1 - 0.0
28/04:30pm 39.4 35.2 8.1 15 18.0 E 20 24 11 13 1006.9 - 0.0
28/04:00pm 39.9 36.3 8.5 15 18.2 ESE 17 26 9 14 1006.8 - 0.0
28/03:30pm 40.0 35.9 7.8 14 18.4 ENE 19 30 10 16 1006.8 - 0.0
28/03:00pm 39.8 36.3 10.1 17 17.6 ENE 19 28 10 15 1006.9 1006.6 0.0
28/02:30pm 40.1 37.4 10.4 17 17.7 E 15 22 8 12 1007.0 - 0.0
28/02:00pm 40.5 36.8 9.4 15 18.3 NE 19 26 10 14 1007.3 - 0.0
28/01:30pm 40.0 36.9 8.7 15 18.2 ENE 15 32 8 17 1007.6 - 0.0
28/01:00pm 40.5 39.1 9.7 16 18.2 ESE 7 22 4 12 1007.9 - 0.0
28/12:44pm 40.6 34.9 8.4 14 18.7 ENE 28 41 15 22 1008.2 - 0.0
28/12:30pm 39.4 36.9 11.1 18 17.0 ESE 15 22 8 12 1008.5 - 0.0
28/12:00pm 38.2 36.9 13.7 23 15.2 N 13 20 7 11 1009.1 1008.8 0.0
28/11:30am 37.8 38.3 15.6 27 14.1 W 7 11 4 6 1009.8 - 0.0
28/11:00am 37.3 37.3 16.2 28 13.5 NNW 11 19 6 10 1010.4 - 0.0
28/10:30am 36.0 36.8 17.3 33 12.1 S 9 17 5 9 1010.8 - 0.0
28/10:00am 35.3 34.4 14.9 29 12.7 S 13 17 7 9 1011.3 - 0.0
28/09:30am 34.2 35.1 18.4 39 10.3 S 11 15 6 8 1011.8 - 0.0
28/09:00am 33.3 35.1 20.3 46 8.7 SE 11 17 6 9 1012.0 1011.7 0.0
28/08:30am 31.9 34.8 21.7 54 6.9 ENE 9 13 5 7 1012.4 - 0.0
28/08:00am 31.0 34.7 22.3 60 5.9 N 6 9 3 5 1012.4 - 0.0
28/07:30am 30.3 34.5 22.4 62 5.4 SE 4 7 2 4 1012.2 - 0.0
28/07:00am 28.7 32.5 22.7 70 4.1 SSE 7 9 4 5 1012.2 - 0.0
28/06:30am 27.8 31.5 22.2 71 3.8 NNE 6 9 3 5 1011.9 - 0.0
28/06:00am 25.8 29.3 22.1 80 2.5 E 7 9 4 5 1011.5 1011.2 0.0
28/05:30am 23.3 26.2 21.0 87 1.5 E 7 7 4 4 1011.1 - 0.0
28/05:00am 21.8 24.7 18.3 80 2.2 CALM 0 0 0 0 1010.7 - 0.0
28/04:45am 22.2 24.8 17.5 74 2.9 CALM 0 0 0 0 1010.6 - 0.0
28/04:30am 22.5 25.9 21.0 91 1.0 SSW 4 7 2 4 1010.3 - 0.0
28/04:26am 22.9 26.8 21.1 89 1.2 SW 2 7 1 4 1010.3 - 0.0
28/04:00am 23.2 27.3 21.5 90 1.1 W 2 6 1 3 1010.3 - 0.0
28/03:30am 22.3 24.9 20.4 89 1.2 W 7 9 4 5 1010.1 - 0.0
28/03:00am 23.6 27.8 21.0 85 1.7 CALM 0 0 0 0 1010.2 1009.9 0.0
28/02:30am 23.1 25.7 20.5 85 1.7 NW 7 9 4 5 1010.1 - 0.0
28/02:00am 24.0 28.0 20.6 81 2.2 CALM 0 0 0 0 1010.2 - 0.0
28/01:30am 24.1 28.1 20.6 81 2.3 CALM 0 0 0 0 1010.2 - 0.0
28/01:00am 24.6 27.0 20.0 75 3.0 NE 7 9 4 5 1010.2 - 0.0
28/12:30am 24.9 27.9 20.1 74 3.1 NNE 4 7 2 4 1010.4 - 0.0
28/12:00am 24.9 26.4 19.0 69 3.8 NNE 9 11 5 6 1010.6 1010.3 0.0
 
Date/Time
WST
Temp
°C
App
Temp
°C
Dew
Point
Rel
Hum
%
Delta-T
°C
Wind Press
QNH
hPa
Press
MSL
hPa
Rain
since 9 am
mm
Dir
 
Spd
km/h
Gust
km/h
Spd
kts
Gust
kts
27/11:30pm 25.6 26.7 18.0 63 4.8 N 9 11 5 6 1010.5 - 0.0
27/11:00pm 26.5 26.8 17.8 58 5.5 N 13 15 7 8 1010.6 - 0.0

Other Formats:

Comma delimited format used in spreadsheet applications
http://www.bom.gov.au/fwo/IDW60801/IDW60801.94216.axf

JavaScript Object Notation format (JSON) in row-major order
http://www.bom.gov.au/fwo/IDW60801/IDW60801.94216.json